CheckWX is a tool to help pilots better visualize weather data.  It is not intended as a substitute for an official pre-flight weather briefing.

08:12:54 UTC

KMOD METAR
Modesto City-Co-Harry Sham Field Airport
Modesto, California, USA
Current

20 mins ago

KMOD 220753Z AUTO 27013KT 10SM CLR 04/M02 A2989 RMK AO2 SLP123 T00391022 401330039
Observed
Feb-22 @ 07:53 UTC
Wind
  • 270° at 13 KTS
Visibility
10 SM
Flight Rules
VFR
Cloud Levels
  • Clear skies
Temperature
C / 39°F
Dewpoint
-2°C / 28°F
Humidity
65%
Altimeter
29.89" Hg
Pressure
1012.3 hPa
Previous

1 hour ago

KMOD 220653Z AUTO 34009KT 10SM CLR 06/M04 A2986 RMK AO2 SLP112 T00611044
Observed
Feb-22 @ 06:53 UTC
Wind
  • 340° at 9 KTS
Visibility
10 SM
Flight Rules
VFR
Cloud Levels
  • Clear skies
Temperature
C / 43°F
Dewpoint
-4°C / 25°F
Humidity
49%
Altimeter
29.86" Hg
Pressure
1011.2 hPa
Previous

2 hours ago

KMOD 220553Z AUTO 33009KT 10SM CLR 07/M04 A2984 RMK AO2 SLP106 T00671044 10133 20061 53031
Observed
Feb-22 @ 05:53 UTC
Wind
  • 330° at 9 KTS
Visibility
10 SM
Flight Rules
VFR
Cloud Levels
  • Clear skies
Temperature
C / 45°F
Dewpoint
-4°C / 25°F
Humidity
46%
Altimeter
29.84" Hg
Pressure
1010.6 hPa